sensor_id;sensor_type;location;lat;lon;timestamp;pressure;altitude;pressure_sealevel;temperature;humidity
75936;BME280;64614;32.062;34.834;2023-04-28T00:00:55;100396.66;;;24.67;41.17
75936;BME280;64614;32.062;34.834;2023-04-28T00:03:20;100390.66;;;24.65;41.20
75936;BME280;64614;32.062;34.834;2023-04-28T00:05:46;100393.41;;;24.65;41.30
75936;BME280;64614;32.062;34.834;2023-04-28T00:08:14;100401.63;;;24.65;41.31
75936;BME280;64614;32.062;34.834;2023-04-28T00:10:39;100403.59;;;24.65;41.28
75936;BME280;64614;32.062;34.834;2023-04-28T00:13:05;100408.25;;;24.64;41.36
75936;BME280;64614;32.062;34.834;2023-04-28T00:15:31;100410.22;;;24.64;41.42
75936;BME280;64614;32.062;34.834;2023-04-28T00:17:56;100409.41;;;24.63;41.34
75936;BME280;64614;32.062;34.834;2023-04-28T00:20:22;100412.94;;;24.64;41.26
75936;BME280;64614;32.062;34.834;2023-04-28T00:22:48;100424.28;;;24.62;41.57
75936;BME280;64614;32.062;34.834;2023-04-28T00:25:14;100418.44;;;24.64;41.40
75936;BME280;64614;32.062;34.834;2023-04-28T00:27:40;100420.72;;;24.62;41.34
75936;BME280;64614;32.062;34.834;2023-04-28T00:30:06;100416.34;;;24.61;41.93
75936;BME280;64614;32.062;34.834;2023-04-28T00:32:32;100421.06;;;24.60;41.42
75936;BME280;64614;32.062;34.834;2023-04-28T00:34:57;100422.66;;;24.61;41.53
75936;BME280;64614;32.062;34.834;2023-04-28T00:37:23;100428.16;;;24.61;41.61
75936;BME280;64614;32.062;34.834;2023-04-28T00:39:53;100428.16;;;24.61;41.31
75936;BME280;64614;32.062;34.834;2023-04-28T00:42:19;100425.41;;;24.61;41.51
75936;BME280;64614;32.062;34.834;2023-04-28T00:44:45;100424.59;;;24.61;41.61
75936;BME280;64614;32.062;34.834;2023-04-28T00:47:10;100433.16;;;24.59;41.62
75936;BME280;64614;32.062;34.834;2023-04-28T00:49:36;100426.53;;;24.60;41.58
75936;BME280;64614;32.062;34.834;2023-04-28T00:52:04;100428.47;;;24.60;41.59
75936;BME280;64614;32.062;34.834;2023-04-28T00:54:34;100437.53;;;24.60;41.41
75936;BME280;64614;32.062;34.834;2023-04-28T00:57:00;100441.06;;;24.61;41.77
75936;BME280;64614;32.062;34.834;2023-04-28T00:59:30;100435.13;;;24.59;41.86
75936;BME280;64614;32.062;34.834;2023-04-28T01:01:55;100435.25;;;24.62;41.61
75936;BME280;64614;32.062;34.834;2023-04-28T01:04:21;100437.53;;;24.60;41.59
75936;BME280;64614;32.062;34.834;2023-04-28T01:06:48;100432.81;;;24.61;41.74
75936;BME280;64614;32.062;34.834;2023-04-28T01:09:15;100443.03;;;24.60;41.58
75936;BME280;64614;32.062;34.834;2023-04-28T01:11:41;100447.69;;;24.60;41.73
75936;BME280;64614;32.062;34.834;2023-04-28T01:14:06;100453.19;;;24.60;41.73
75936;BME280;64614;32.062;34.834;2023-04-28T01:16:33;100448.50;;;24.60;41.70
75936;BME280;64614;32.062;34.834;2023-04-28T01:18:59;100447.03;;;24.63;41.92
75936;BME280;64614;32.062;34.834;2023-04-28T01:21:32;100447.38;;;24.61;41.36
75936;BME280;64614;32.062;34.834;2023-04-28T01:23:59;100451.25;;;24.60;41.78
75936;BME280;64614;32.062;34.834;2023-04-28T01:26:25;100452.38;;;24.59;41.74
75936;BME280;64614;32.062;34.834;2023-04-28T01:28:51;100459.50;;;24.60;41.89
75936;BME280;64614;32.062;34.834;2023-04-28T01:31:17;100463.38;;;24.59;41.64
75936;BME280;64614;32.062;34.834;2023-04-28T01:33:43;100466.59;;;24.61;41.63
75936;BME280;64614;32.062;34.834;2023-04-28T01:36:09;100457.53;;;24.61;41.71
75936;BME280;64614;32.062;34.834;2023-04-28T01:38:34;100460.28;;;24.61;41.74
75936;BME280;64614;32.062;34.834;2023-04-28T01:41:00;100450.44;;;24.60;41.81
75936;BME280;64614;32.062;34.834;2023-04-28T01:43:27;100449.31;;;24.61;41.81
75936;BME280;64614;32.062;34.834;2023-04-28T01:45:52;100450.44;;;24.60;41.65
75936;BME280;64614;32.062;34.834;2023-04-28T01:48:18;100455.91;;;24.60;42.12
75936;BME280;64614;32.062;34.834;2023-04-28T01:50:44;100461.41;;;24.60;41.94
75936;BME280;64614;32.062;34.834;2023-04-28T01:53:09;100451.91;;;24.57;41.91
75936;BME280;64614;32.062;34.834;2023-04-28T01:55:37;100454.66;;;24.57;41.84
75936;BME280;64614;32.062;34.834;2023-04-28T01:58:02;100447.53;;;24.56;41.85
75936;BME280;64614;32.062;34.834;2023-04-28T02:00:28;100453.84;;;24.56;41.99
75936;BME280;64614;32.062;34.834;2023-04-28T02:02:54;100453.84;;;24.56;41.92
75936;BME280;64614;32.062;34.834;2023-04-28T02:05:19;100453.38;;;24.54;42.11
75936;BME280;64614;32.062;34.834;2023-04-28T02:07:45;100464.03;;;24.56;42.12
75936;BME280;64614;32.062;34.834;2023-04-28T02:10:11;100458.53;;;24.56;42.13
75936;BME280;64614;32.062;34.834;2023-04-28T02:12:36;100458.53;;;24.56;42.03
75936;BME280;64614;32.062;34.834;2023-04-28T02:15:02;100456.94;;;24.55;42.16
75936;BME280;64614;32.062;34.834;2023-04-28T02:17:31;100457.72;;;24.55;42.11
75936;BME280;64614;32.062;34.834;2023-04-28T02:19:57;100459.69;;;24.55;42.05
75936;BME280;64614;32.062;34.834;2023-04-28T02:22:24;100467.09;;;24.54;42.01
75936;BME280;64614;32.062;34.834;2023-04-28T02:24:50;100465.19;;;24.55;41.99
75936;BME280;64614;32.062;34.834;2023-04-28T02:27:15;100456.13;;;24.54;42.25
75936;BME280;64614;32.062;34.834;2023-04-28T02:29:41;100451.75;;;24.53;42.09
75936;BME280;64614;32.062;34.834;2023-04-28T02:32:07;100453.72;;;24.53;42.21
75936;BME280;64614;32.062;34.834;2023-04-28T02:34:33;100453.72;;;24.53;42.39
75936;BME280;64614;32.062;34.834;2023-04-28T02:36:58;100451.44;;;24.55;42.11
75936;BME280;64614;32.062;34.834;2023-04-28T02:39:25;100455.34;;;24.54;42.27
75936;BME280;64614;32.062;34.834;2023-04-28T02:41:52;100464.69;;;24.53;42.21
75936;BME280;64614;32.062;34.834;2023-04-28T02:44:20;100465.00;;;24.51;42.40
75936;BME280;64614;32.062;34.834;2023-04-28T02:46:45;100467.75;;;24.51;42.24
75936;BME280;64614;32.062;34.834;2023-04-28T02:49:11;100458.72;;;24.51;42.46
75936;BME280;64614;32.062;34.834;2023-04-28T02:51:38;100456.78;;;24.51;42.32
75936;BME280;64614;32.062;34.834;2023-04-28T02:54:04;100471.66;;;24.50;42.39
75936;BME280;64614;32.062;34.834;2023-04-28T02:56:29;100478.72;;;24.51;42.23
75936;BME280;64614;32.062;34.834;2023-04-28T02:58:56;100486.19;;;24.51;42.35
75936;BME280;64614;32.062;34.834;2023-04-28T03:01:22;100487.31;;;24.50;42.73
75936;BME280;64614;32.062;34.834;2023-04-28T03:03:48;100480.19;;;24.49;42.04
75936;BME280;64614;32.062;34.834;2023-04-28T03:06:14;100492.78;;;24.50;42.28
75936;BME280;64614;32.062;34.834;2023-04-28T03:08:39;100489.25;;;24.49;42.11
75936;BME280;64614;32.062;34.834;2023-04-28T03:11:05;100489.56;;;24.56;42.38
75936;BME280;64614;32.062;34.834;2023-04-28T03:13:31;100491.47;;;24.56;42.09
75936;BME280;64614;32.062;34.834;2023-04-28T03:15:57;100483.91;;;24.53;42.15
75936;BME280;64614;32.062;34.834;2023-04-28T03:18:22;100493.28;;;24.52;42.37
75936;BME280;64614;32.062;34.834;2023-04-28T03:20:48;100494.41;;;24.51;42.57
75936;BME280;64614;32.062;34.834;2023-04-28T03:23:14;100499.41;;;24.49;42.56
75936;BME280;64614;32.062;34.834;2023-04-28T03:25:40;100497.00;;;24.47;42.48
75936;BME280;64614;32.062;34.834;2023-04-28T03:28:06;100511.38;;;24.44;42.63
75936;BME280;64614;32.062;34.834;2023-04-28T03:30:32;100508.97;;;24.43;42.58
75936;BME280;64614;32.062;34.834;2023-04-28T03:32:58;100511.56;;;24.39;42.52
75936;BME280;64614;32.062;34.834;2023-04-28T03:35:24;100517.38;;;24.37;42.41
75936;BME280;64614;32.062;34.834;2023-04-28T03:37:49;100510.28;;;24.36;42.49
75936;BME280;64614;32.062;34.834;2023-04-28T03:40:15;100516.44;;;24.33;42.48
75936;BME280;64614;32.062;34.834;2023-04-28T03:42:41;100519.50;;;24.32;42.33
75936;BME280;64614;32.062;34.834;2023-04-28T03:45:07;100525.00;;;24.32;42.57
75936;BME280;64614;32.062;34.834;2023-04-28T03:47:33;100527.25;;;24.30;42.52
75936;BME280;64614;32.062;34.834;2023-04-28T03:49:59;100530.34;;;24.28;42.70
75936;BME280;64614;32.062;34.834;2023-04-28T03:52:25;100530.34;;;24.28;42.55
75936;BME280;64614;32.062;34.834;2023-04-28T03:54:51;100527.91;;;24.27;42.62
75936;BME280;64614;32.062;34.834;2023-04-28T03:57:17;100531.78;;;24.25;42.47
75936;BME280;64614;32.062;34.834;2023-04-28T03:59:42;100539.53;;;24.23;42.60
75936;BME280;64614;32.062;34.834;2023-04-28T04:02:08;100537.09;;;24.22;42.46
75936;BME280;64614;32.062;34.834;2023-04-28T04:04:34;100553.56;;;24.22;42.49
75936;BME280;64614;32.062;34.834;2023-04-28T04:07:00;100542.59;;;24.22;42.52
75936;BME280;64614;32.062;34.834;2023-04-28T04:09:26;100545.69;;;24.20;42.45
75936;BME280;64614;32.062;34.834;2023-04-28T04:11:51;100559.72;;;24.19;42.63
75936;BME280;64614;32.062;34.834;2023-04-28T04:14:17;100559.72;;;24.19;42.23
75936;BME280;64614;32.062;34.834;2023-04-28T04:16:43;100554.25;;;24.19;42.52
75936;BME280;64614;32.062;34.834;2023-04-28T04:19:10;100560.03;;;24.17;42.52
75936;BME280;64614;32.062;34.834;2023-04-28T04:21:36;100557.28;;;24.17;42.35
75936;BME280;64614;32.062;34.834;2023-04-28T04:24:02;100558.41;;;24.16;42.38
75936;BME280;64614;32.062;34.834;2023-04-28T04:26:27;100560.38;;;24.16;42.61
75936;BME280;64614;32.062;34.834;2023-04-28T04:28:53;100554.09;;;24.15;42.45
75936;BME280;64614;32.062;34.834;2023-04-28T04:31:19;100571.34;;;24.16;42.60
75936;BME280;64614;32.062;34.834;2023-04-28T04:33:45;100576.03;;;24.15;42.71
75936;BME280;64614;32.062;34.834;2023-04-28T04:36:10;100577.97;;;24.15;42.55
75936;BME280;64614;32.062;34.834;2023-04-28T04:38:36;100580.69;;;24.15;42.49
75936;BME280;64614;32.062;34.834;2023-04-28T04:41:02;100581.81;;;24.14;42.65
75936;BME280;64614;32.062;34.834;2023-04-28T04:43:27;100581.03;;;24.13;42.88
75936;BME280;64614;32.062;34.834;2023-04-28T04:45:53;100576.34;;;24.14;42.68
75936;BME280;64614;32.062;34.834;2023-04-28T04:48:19;100567.31;;;24.13;42.56
75936;BME280;64614;32.062;34.834;2023-04-28T04:50:45;100575.56;;;24.13;42.67
75936;BME280;64614;32.062;34.834;2023-04-28T04:53:11;100579.09;;;24.14;42.64
75936;BME280;64614;32.062;34.834;2023-04-28T04:55:37;100577.47;;;24.13;42.65
75936;BME280;64614;32.062;34.834;2023-04-28T04:58:03;100581.81;;;24.14;42.76
75936;BME280;64614;32.062;34.834;2023-04-28T05:00:28;100580.69;;;24.15;42.91
75936;BME280;64614;32.062;34.834;2023-04-28T05:02:54;100578.78;;;24.15;42.80
75936;BME280;64614;32.062;34.834;2023-04-28T05:05:20;100576.03;;;24.15;42.65
75936;BME280;64614;32.062;34.834;2023-04-28T05:07:45;100586.69;;;24.17;42.89
75936;BME280;64614;32.062;34.834;2023-04-28T05:10:11;100579.25;;;24.17;42.89
75936;BME280;64614;32.062;34.834;2023-04-28T05:12:37;100583.94;;;24.17;42.91
75936;BME280;64614;32.062;34.834;2023-04-28T05:15:06;100581.97;;;24.17;42.79
75936;BME280;64614;32.062;34.834;2023-04-28T05:17:32;100580.06;;;24.18;42.97
75936;BME280;64614;32.062;34.834;2023-04-28T05:19:58;100591.84;;;24.18;43.01
75936;BME280;64614;32.062;34.834;2023-04-28T05:22:24;100581.69;;;24.19;43.04
75936;BME280;64614;32.062;34.834;2023-04-28T05:24:50;100588.75;;;24.20;43.04
75936;BME280;64614;32.062;34.834;2023-04-28T05:27:17;100581.00;;;24.22;43.45
75936;BME280;64614;32.062;34.834;2023-04-28T05:29:43;100581.84;;;24.22;43.21
75936;BME280;64614;32.062;34.834;2023-04-28T05:32:09;100582.63;;;24.23;43.09
75936;BME280;64614;32.062;34.834;2023-04-28T05:34:35;100593.28;;;24.24;43.29
75936;BME280;64614;32.062;34.834;2023-04-28T05:37:00;100588.59;;;24.25;43.09
75936;BME280;64614;32.062;34.834;2023-04-28T05:39:26;100582.00;;;24.26;43.36
75936;BME280;64614;32.062;34.834;2023-04-28T05:41:52;100589.88;;;24.28;43.34
75936;BME280;64614;32.062;34.834;2023-04-28T05:44:18;100594.25;;;24.29;43.10
75936;BME280;64614;32.062;34.834;2023-04-28T05:46:43;100592.28;;;24.29;43.42
75936;BME280;64614;32.062;34.834;2023-04-28T05:49:09;100596.66;;;24.30;43.31
75936;BME280;64614;32.062;34.834;2023-04-28T05:51:35;100590.03;;;24.31;43.35
75936;BME280;64614;32.062;34.834;2023-04-28T05:54:02;100602.63;;;24.32;43.46
75936;BME280;64614;32.062;34.834;2023-04-28T05:56:28;100611.69;;;24.33;43.61
75936;BME280;64614;32.062;34.834;2023-04-28T05:58:53;100609.75;;;24.33;43.46
75936;BME280;64614;32.062;34.834;2023-04-28T06:01:21;100614.59;;;24.36;43.38
75936;BME280;64614;32.062;34.834;2023-04-28T06:03:46;100604.41;;;24.37;43.67
75936;BME280;64614;32.062;34.834;2023-04-28T06:06:12;100612.31;;;24.38;43.64
75936;BME280;64614;32.062;34.834;2023-04-28T06:08:38;100612.00;;;24.40;43.63
75936;BME280;64614;32.062;34.834;2023-04-28T06:11:04;100616.38;;;24.41;43.68
75936;BME280;64614;32.062;34.834;2023-04-28T06:13:29;100614.75;;;24.40;43.79
75936;BME280;64614;32.062;34.834;2023-04-28T06:15:55;100616.03;;;24.43;43.75
75936;BME280;64614;32.062;34.834;2023-04-28T06:18:21;100617.16;;;24.41;44.03
75936;BME280;64614;32.062;34.834;2023-04-28T06:20:48;100629.09;;;24.46;44.21
75936;BME280;64614;32.062;34.834;2023-04-28T06:23:14;100627.66;;;24.48;44.50
75936;BME280;64614;32.062;34.834;2023-04-28T06:25:39;100640.69;;;24.51;44.49
75936;BME280;64614;32.062;34.834;2023-04-28T06:28:05;100642.81;;;24.54;44.93
75936;BME280;64614;32.062;34.834;2023-04-28T06:30:32;100638.44;;;24.53;45.03
75936;BME280;64614;32.062;34.834;2023-04-28T06:32:59;100636.03;;;24.52;45.28
75936;BME280;64614;32.062;34.834;2023-04-28T06:35:24;100638.28;;;24.50;45.29
75936;BME280;64614;32.062;34.834;2023-04-28T06:37:50;100631.53;;;24.47;45.09
75936;BME280;64614;32.062;34.834;2023-04-28T06:40:16;100645.25;;;24.47;45.09
75936;BME280;64614;32.062;34.834;2023-04-28T06:42:41;100638.63;;;24.48;45.59
75936;BME280;64614;32.062;34.834;2023-04-28T06:45:08;100648.63;;;24.44;45.75
75936;BME280;64614;32.062;34.834;2023-04-28T06:47:33;100654.47;;;24.43;45.62
75936;BME280;64614;32.062;34.834;2023-04-28T06:50:02;100657.19;;;24.43;45.56
75936;BME280;64614;32.062;34.834;2023-04-28T06:52:27;100659.13;;;24.42;45.76
75936;BME280;64614;32.062;34.834;2023-04-28T06:54:54;100661.06;;;24.41;45.76
75936;BME280;64614;32.062;34.834;2023-04-28T06:57:20;100662.34;;;24.44;45.61
75936;BME280;64614;32.062;34.834;2023-04-28T06:59:46;100660.75;;;24.43;45.61
75936;BME280;64614;32.062;34.834;2023-04-28T07:02:12;100654.94;;;24.45;45.42
75936;BME280;64614;32.062;34.834;2023-04-28T07:04:37;100654.28;;;24.48;45.38
75936;BME280;64614;32.062;34.834;2023-04-28T07:07:03;100656.22;;;24.47;45.32
75936;BME280;64614;32.062;34.834;2023-04-28T07:09:33;100661.56;;;24.44;45.90
75936;BME280;64614;32.062;34.834;2023-04-28T07:11:59;100662.69;;;24.43;45.85
75936;BME280;64614;32.062;34.834;2023-04-28T07:14:25;100654.59;;;24.37;45.80
75936;BME280;64614;32.062;34.834;2023-04-28T07:16:50;100655.75;;;24.28;46.27
75936;BME280;64614;32.062;34.834;2023-04-28T07:19:16;100656.22;;;24.21;45.87
75936;BME280;64614;32.062;34.834;2023-04-28T07:21:42;100662.38;;;24.18;45.67
75936;BME280;64614;32.062;34.834;2023-04-28T07:24:07;100660.59;;;24.13;45.97
75936;BME280;64614;32.062;34.834;2023-04-28T07:26:33;100674.31;;;24.13;45.91
75936;BME280;64614;32.062;34.834;2023-04-28T07:28:59;100667.22;;;24.12;45.92
75936;BME280;64614;32.062;34.834;2023-04-28T07:31:24;100676.91;;;24.09;45.78
75936;BME280;64614;32.062;34.834;2023-04-28T07:33:51;100663.31;;;24.04;45.33
75936;BME280;64614;32.062;34.834;2023-04-28T07:36:16;100675.59;;;23.98;45.29
75936;BME280;64614;32.062;34.834;2023-04-28T07:38:42;100671.84;;;23.94;45.64
75936;BME280;64614;32.062;34.834;2023-04-28T07:41:08;100669.09;;;23.85;45.49
75936;BME280;64614;32.062;34.834;2023-04-28T07:43:33;100676.50;;;23.85;45.19
75936;BME280;64614;32.062;34.834;2023-04-28T07:46:00;100669.09;;;23.85;45.25
75936;BME280;64614;32.062;34.834;2023-04-28T07:48:25;100671.50;;;23.87;45.24
75936;BME280;64614;32.062;34.834;2023-04-28T07:50:52;100674.41;;;23.90;45.03
75936;BME280;64614;32.062;34.834;2023-04-28T07:53:18;100672.97;;;23.93;44.98
75936;BME280;64614;32.062;34.834;2023-04-28T07:55:43;100665.25;;;23.95;44.81
75936;BME280;64614;32.062;34.834;2023-04-28T07:58:10;100670.44;;;23.97;44.32
75936;BME280;64614;32.062;34.834;2023-04-28T08:00:36;100673.47;;;23.95;44.88
75936;BME280;64614;32.062;34.834;2023-04-28T08:03:03;100677.84;;;23.96;44.47
75936;BME280;64614;32.062;34.834;2023-04-28T08:05:29;100682.19;;;23.97;44.66
75936;BME280;64614;32.062;34.834;2023-04-28T08:07:56;100679.94;;;23.99;44.74
75936;BME280;64614;32.062;34.834;2023-04-28T08:10:21;100682.03;;;24.02;44.73
75936;BME280;64614;32.062;34.834;2023-04-28T08:12:47;100681.25;;;24.02;44.52
75936;BME280;64614;32.062;34.834;2023-04-28T08:15:13;100681.72;;;24.04;44.52
75936;BME280;64614;32.062;34.834;2023-04-28T08:17:38;100674.78;;;24.06;44.29
75936;BME280;64614;32.062;34.834;2023-04-28T08:20:04;100671.41;;;24.09;44.24
75936;BME280;64614;32.062;34.834;2023-04-28T08:22:31;100665.09;;;24.09;43.98
75936;BME280;64614;32.062;34.834;2023-04-28T08:24:57;100673.03;;;24.11;43.95
75936;BME280;64614;32.062;34.834;2023-04-28T08:27:22;100667.34;;;24.07;43.78
75936;BME280;64614;32.062;34.834;2023-04-28T08:29:50;100667.69;;;24.05;43.59
75936;BME280;64614;32.062;34.834;2023-04-28T08:32:16;100655.25;;;23.99;43.65
75936;BME280;64614;32.062;34.834;2023-04-28T08:34:42;100672.50;;;23.91;43.43
75936;BME280;64614;32.062;34.834;2023-04-28T08:37:07;100660.69;;;23.82;43.39
75936;BME280;64614;32.062;34.834;2023-04-28T08:39:33;100673.91;;;23.79;43.78
75936;BME280;64614;32.062;34.834;2023-04-28T08:42:03;100659.06;;;23.81;43.92
75936;BME280;64614;32.062;34.834;2023-04-28T08:44:38;100673.28;;;23.83;44.14
75936;BME280;64614;32.062;34.834;2023-04-28T08:47:11;100657.97;;;23.82;44.06
75936;BME280;64614;32.062;34.834;2023-04-28T08:49:39;100662.31;;;23.83;43.83
75936;BME280;64614;32.062;34.834;2023-04-28T08:52:16;100660.88;;;23.85;43.86
75936;BME280;64614;32.062;34.834;2023-04-28T08:54:42;100656.16;;;23.86;43.47
75936;BME280;64614;32.062;34.834;2023-04-28T08:57:09;100668.75;;;23.87;43.91
75936;BME280;64614;32.062;34.834;2023-04-28T08:59:39;100677.81;;;23.87;43.76
75936;BME280;64614;32.062;34.834;2023-04-28T09:02:09;100668.75;;;23.87;43.82
75936;BME280;64614;32.062;34.834;2023-04-28T09:04:35;100674.75;;;23.89;44.13
75936;BME280;64614;32.062;34.834;2023-04-28T09:07:01;100657.94;;;23.90;43.95
75936;BME280;64614;32.062;34.834;2023-04-28T09:09:29;100670.53;;;23.91;44.02
75936;BME280;64614;32.062;34.834;2023-04-28T09:11:59;100670.25;;;23.93;44.13
75936;BME280;64614;32.062;34.834;2023-04-28T09:14:32;100673.97;;;23.97;43.90
75936;BME280;64614;32.062;34.834;2023-04-28T09:16:59;100676.72;;;23.97;44.06
75936;BME280;64614;32.062;34.834;2023-04-28T09:19:35;100680.44;;;24.01;43.83
75936;BME280;64614;32.062;34.834;2023-04-28T09:22:01;100683.66;;;24.03;43.96
75936;BME280;64614;32.062;34.834;2023-04-28T09:24:32;100684.78;;;24.02;43.71
75936;BME280;64614;32.062;34.834;2023-04-28T09:27:03;100681.41;;;24.05;43.86
75936;BME280;64614;32.062;34.834;2023-04-28T09:29:29;100680.59;;;24.05;43.63
75936;BME280;64614;32.062;34.834;2023-04-28T09:32:12;100677.03;;;24.04;43.65
75936;BME280;64614;32.062;34.834;2023-04-28T09:34:47;100678.50;;;24.02;43.39
75936;BME280;64614;32.062;34.834;2023-04-28T09:37:21;100678.16;;;24.03;42.89
75936;BME280;64614;32.062;34.834;2023-04-28T09:39:49;100671.72;;;23.99;42.79
75936;BME280;64614;32.062;34.834;2023-04-28T09:42:35;100678.34;;;23.98;42.67
75936;BME280;64614;32.062;34.834;2023-04-28T09:45:03;100672.34;;;23.96;42.68
75936;BME280;64614;32.062;34.834;2023-04-28T09:47:29;100669.41;;;23.92;42.22
75936;BME280;64614;32.062;34.834;2023-04-28T09:49:59;100674.41;;;23.90;42.68
75936;BME280;64614;32.062;34.834;2023-04-28T09:52:25;100668.63;;;23.92;42.32
75936;BME280;64614;32.062;34.834;2023-04-28T09:54:53;100680.72;;;23.91;42.52
75936;BME280;64614;32.062;34.834;2023-04-28T09:57:19;100673.63;;;23.90;42.51
75936;BME280;64614;32.062;34.834;2023-04-28T09:59:52;100678.28;;;23.89;42.26
75936;BME280;64614;32.062;34.834;2023-04-28T10:02:20;100670.38;;;23.88;41.87
75936;BME280;64614;32.062;34.834;2023-04-28T10:04:48;100676.69;;;23.88;42.43
75936;BME280;64614;32.062;34.834;2023-04-28T10:07:17;100673.63;;;23.90;42.51
75936;BME280;64614;32.062;34.834;2023-04-28T10:09:45;100687.19;;;23.95;42.80
75936;BME280;64614;32.062;34.834;2023-04-28T10:12:17;100678.66;;;23.97;43.05
75936;BME280;64614;32.062;34.834;2023-04-28T10:17:13;100677.53;;;24.06;42.73
75936;BME280;64614;32.062;34.834;2023-04-28T10:19:49;100681.25;;;24.11;43.02
75936;BME280;64614;32.062;34.834;2023-04-28T10:25:19;100694.63;;;24.21;43.10
75936;BME280;64614;32.062;34.834;2023-04-28T10:27:49;100673.50;;;24.21;43.06
75936;BME280;64614;32.062;34.834;2023-04-28T10:30:21;100688.34;;;24.29;43.03
75936;BME280;64614;32.062;34.834;2023-04-28T10:35:45;100684.78;;;24.37;43.27
75936;BME280;64614;32.062;34.834;2023-04-28T10:38:16;100692.41;;;24.40;43.03
75936;BME280;64614;32.062;34.834;2023-04-28T10:40:44;100687.88;;;24.45;42.92
75936;BME280;64614;32.062;34.834;2023-04-28T10:43:14;100687.56;;;24.46;42.89
75936;BME280;64614;32.062;34.834;2023-04-28T10:46:01;100697.91;;;24.49;42.79
75936;BME280;64614;32.062;34.834;2023-04-28T10:56:23;100692.88;;;24.60;42.67
75936;BME280;64614;32.062;34.834;2023-04-28T10:58:50;100697.06;;;24.66;42.62
75936;BME280;64614;32.062;34.834;2023-04-28T11:03:58;100699.97;;;24.70;42.99
75936;BME280;64614;32.062;34.834;2023-04-28T11:06:35;100695.63;;;24.78;42.97
75936;BME280;64614;32.062;34.834;2023-04-28T11:12:05;100703.69;;;24.83;42.93
75936;BME280;64614;32.062;34.834;2023-04-28T11:14:36;100692.06;;;24.86;42.78
75936;BME280;64614;32.062;34.834;2023-04-28T11:17:09;100698.34;;;24.86;42.70
75936;BME280;64614;32.062;34.834;2023-04-28T11:19:43;100688.31;;;24.91;42.91
75936;BME280;64614;32.062;34.834;2023-04-28T11:22:21;100688.47;;;24.94;42.79
75936;BME280;64614;32.062;34.834;2023-04-28T11:24:59;100682.50;;;24.92;42.67
75936;BME280;64614;32.062;34.834;2023-04-28T11:27:32;100678.28;;;24.95;42.81
75936;BME280;64614;32.062;34.834;2023-04-28T11:30:19;100698.16;;;25.00;42.93
75936;BME280;64614;32.062;34.834;2023-04-28T11:32:48;100690.25;;;24.99;42.50
75936;BME280;64614;32.062;34.834;2023-04-28T11:35:14;100688.91;;;25.05;42.53
75936;BME280;64614;32.062;34.834;2023-04-28T11:37:40;100687.78;;;25.06;42.68
75936;BME280;64614;32.062;34.834;2023-04-28T11:40:10;100689.91;;;25.09;42.78
75936;BME280;64614;32.062;34.834;2023-04-28T11:42:46;100691.16;;;25.12;42.41
75936;BME280;64614;32.062;34.834;2023-04-28T11:45:12;100683.75;;;25.12;42.37
75936;BME280;64614;32.062;34.834;2023-04-28T11:47:38;100685.19;;;25.10;42.24
75936;BME280;64614;32.062;34.834;2023-04-28T11:50:04;100694.88;;;25.16;42.46
75936;BME280;64614;32.062;34.834;2023-04-28T11:52:30;100692.44;;;25.14;42.33
75936;BME280;64614;32.062;34.834;2023-04-28T11:54:57;100679.84;;;25.13;42.49
75936;BME280;64614;32.062;34.834;2023-04-28T11:57:24;100676.94;;;25.18;42.30
75936;BME280;64614;32.062;34.834;2023-04-28T11:59:51;100688.41;;;25.21;42.40
75936;BME280;64614;32.062;34.834;2023-04-28T12:02:24;100689.19;;;25.21;42.40
75936;BME280;64614;32.062;34.834;2023-04-28T12:04:52;100674.97;;;25.19;42.42
75936;BME280;64614;32.062;34.834;2023-04-28T12:10:39;100678.19;;;25.30;42.36
75936;BME280;64614;32.062;34.834;2023-04-28T12:13:15;100683.50;;;25.26;42.38
75936;BME280;64614;32.062;34.834;2023-04-28T12:15:41;100677.38;;;25.29;42.26
75936;BME280;64614;32.062;34.834;2023-04-28T12:18:10;100689.19;;;25.30;42.13
75936;BME280;64614;32.062;34.834;2023-04-28T12:20:37;100682.53;;;25.31;42.12
75936;BME280;64614;32.062;34.834;2023-04-28T12:23:04;100679.78;;;25.31;41.95
75936;BME280;64614;32.062;34.834;2023-04-28T12:25:32;100681.38;;;25.32;42.28
75936;BME280;64614;32.062;34.834;2023-04-28T12:28:00;100678.78;;;25.35;42.08
75936;BME280;64614;32.062;34.834;2023-04-28T12:30:27;100672.50;;;25.35;41.81
75936;BME280;64614;32.062;34.834;2023-04-28T12:32:55;100673.75;;;25.38;41.92
75936;BME280;64614;32.062;34.834;2023-04-28T12:35:25;100668.28;;;25.38;41.72
75936;BME280;64614;32.062;34.834;2023-04-28T12:37:52;100663.59;;;25.38;42.26
75936;BME280;64614;32.062;34.834;2023-04-28T12:40:19;100673.94;;;25.41;42.25
75936;BME280;64614;32.062;34.834;2023-04-28T12:42:45;100670.88;;;25.43;42.45
75936;BME280;64614;32.062;34.834;2023-04-28T12:45:12;100665.84;;;25.45;42.22
75936;BME280;64614;32.062;34.834;2023-04-28T12:47:39;100667.13;;;25.47;42.73
75936;BME280;64614;32.062;34.834;2023-04-28T12:50:07;100665.97;;;25.48;42.79
75936;BME280;64614;32.062;34.834;2023-04-28T12:52:33;100677.13;;;25.52;42.89
75936;BME280;64614;32.062;34.834;2023-04-28T12:55:01;100674.06;;;25.54;42.94
75936;BME280;64614;32.062;34.834;2023-04-28T12:57:27;100685.53;;;25.56;43.13
75936;BME280;64614;32.062;34.834;2023-04-28T12:59:53;100669.03;;;25.56;43.10
75936;BME280;64614;32.062;34.834;2023-04-28T13:02:20;100685.19;;;25.57;43.09
75936;BME280;64614;32.062;34.834;2023-04-28T13:04:46;100663.84;;;25.54;42.53